This is the latest recevied weather packets stored in our database for station/object K2CCS. If no packets are shown the sender has not sent any weather packets the latest 1 day(s).
| Time | Temp. | Humidity | Pressure | Rain* | Wind** | Luminosity | Snow |
|---|---|---|---|---|---|---|---|
| 1778027546 | 17.78° C | 75% | 1010.6 hPa | 0 mm | - | 0 W/m² | - |
| 1778026938 | 17.78° C | 74% | 1010.5 hPa | 0 mm | - | 0 W/m² | - |
| 1778026634 | 18.33° C | 74% | 1010.4 hPa | 0 mm | - | 0 W/m² | - |
| 1778026332 | 18.33° C | 73% | 1010.4 hPa | 0 mm | - | 0 W/m² | - |
| 1778024515 | 20° C | 66% | 1010.2 hPa | 0 mm | - | 8 W/m² | - |
| 1778022397 | 20° C | 65% | 1009.9 hPa | 0 mm | - | 4 W/m² | - |
| 1778022093 | 20° C | 66% | 1009.5 hPa | 0 mm | - | 7 W/m² | - |
| 1778020880 | 20.56° C | 64% | 1009.8 hPa | 0 mm | - | 22 W/m² | - |
| 1778019970 | 20° C | 65% | 1010 hPa | 0 mm | - | 17 W/m² | - |
| 1778018757 | 20° C | 63% | 1009.2 hPa | 0 mm | - | 41 W/m² | - |
| 1778017850 | 20.56° C | 61% | 1009 hPa | 0 mm | - | 88 W/m² | - |
| 1778017548 | 20° C | 61% | 1008.6 hPa | 0 mm | - | 69 W/m² | - |
| 1778016335 | 20° C | 66% | 1009 hPa | 0 mm | - | 67 W/m² | - |
| 1778015426 | 20.56° C | 65% | 1009.6 hPa | 0 mm | - | 31 W/m² | - |
| 1778015123 | 20.56° C | 65% | 1009.4 hPa | 0 mm | - | 22 W/m² | - |
| 1778014820 | 21.11° C | 64% | 1009.5 hPa | 0 mm | - | 36 W/m² | - |
| 1778014518 | 21.67° C | 63% | 1009.3 hPa | 0 mm | - | 51 W/m² | - |
| 1778013306 | 22.78° C | 61% | 1008.3 hPa | 0 mm | - | 181 W/m² | - |
| 1778012395 | 21.67° C | 64% | 1008 hPa | 0 mm | - | 416 W/m² | - |
| 1778011183 | 18.89° C | 73% | 1007.9 hPa | 0 mm | - | 89 W/m² | - |
| 1778010275 | 20° C | 71% | 1009.6 hPa | 0 mm | - | 86 W/m² | - |
| 1778007856 | 26.11° C | 38% | 1007 hPa | 0 mm | - | 50 W/m² | - |
| 1778006339 | 26.67° C | 43% | 1006.7 hPa | 0 mm | - | 57 W/m² | - |
| 1778005732 | 26.67° C | 44% | 1006.5 hPa | 0 mm | - | 152 W/m² | - |
| 1778005126 | 26.11° C | 44% | 1006.9 hPa | 0 mm | - | 104 W/m² | - |
* Rain latest hour (hover to see other rain measurements)
** Current wind speed in m/s (hover to see current wind gust speed)